Quartz Hill, California
Current Conditions -  °F | °C
As of 3:53 AM on Saturday 25 Oct 2014 (Local Time) from KPMD Reporting Station
Clear Clear  
Wind Chill: 66°   Ceiling: Unl
Heat Index: 66°   Visibility: 10mi
Dew Point: 34°   Wind: 0mph
Humidity: 30%   Direction: NA
Pressure: 30.04"   Gusts: NA
Location:  34.5959°N, 118.235°W
Report Text: KPMD 251053Z AUTO 00000KT 10SM CLR 19/01 A3004 RMK AO2 SLP147 T01890011
Loading
Personal Weather Stations






























Interactive Weather Map
Tropical Storm Tracking
New forecast layout! Learn more

10-Day Weather Forecast

Advertisements
Track Severe Weather on mobile